Cowansville, Canada
Current Conditions -  °F | °C
As of 10:15 AM on Thursday 30 Oct 2014 (Local Time) from KFSO Reporting Station
Overcast Overcast  
Wind Chill: 40°   Ceiling: 2800
Heat Index: 44°   Visibility: 10mi
Dew Point: 35°   Wind: 6mph
Humidity: 73%   Direction: 290°WNW
Pressure: 29.97"   Gusts: NA
Location:  45.2°N, 72.75°W
Report Text: KFSO 301415Z AUTO 29005KT 10SM SCT022 OVC028 06/02 A2997 RMK AO2 T00640018
Loading
Personal Weather Stations






























Interactive Weather Map
Tropical Storm Tracking
New forecast layout! Learn more

10-Day Weather Forecast

Advertisements
Track Severe Weather on mobile